createdAt,value
2022-10-15T00:00:02.487Z,12.53
2022-10-15T00:01:02.549Z,12.57
2022-10-15T00:02:02.450Z,12.54
2022-10-15T00:03:02.442Z,12.65
2022-10-15T00:04:02.516Z,12.57
2022-10-15T00:05:02.455Z,12.56
2022-10-15T00:06:02.493Z,12.53
2022-10-15T00:07:02.384Z,12.54
2022-10-15T00:08:02.379Z,12.57
2022-10-15T00:09:02.366Z,12.56
2022-10-15T00:10:02.377Z,12.56
2022-10-15T00:11:02.356Z,12.53
2022-10-15T00:12:02.340Z,12.53
2022-10-15T00:14:02.346Z,12.57
2022-10-15T00:15:02.301Z,12.56
2022-10-15T00:16:02.287Z,12.57
2022-10-15T00:17:02.274Z,12.54
2022-10-15T00:18:02.268Z,12.60
2022-10-15T00:19:02.265Z,12.57
2022-10-15T00:20:02.238Z,12.54
2022-10-15T00:21:02.226Z,12.54
2022-10-15T00:23:02.229Z,12.54
2022-10-15T00:24:02.190Z,12.65
2022-10-15T00:25:02.221Z,12.56
2022-10-15T00:26:02.182Z,12.56
2022-10-15T00:27:02.152Z,12.57
2022-10-15T00:28:02.150Z,12.60
2022-10-15T00:29:02.263Z,12.56
2022-10-15T00:30:02.137Z,12.54
2022-10-15T00:32:02.115Z,12.57
2022-10-15T00:33:02.082Z,12.64
2022-10-15T00:34:02.089Z,12.53
2022-10-15T00:35:02.083Z,12.59
2022-10-15T00:36:02.046Z,12.50
2022-10-15T00:37:02.041Z,12.54
2022-10-15T00:38:02.026Z,12.50
2022-10-15T00:39:02.046Z,12.52
2022-10-15T00:41:01.997Z,12.59
2022-10-15T00:42:02.000Z,12.47
2022-10-15T00:43:01.985Z,12.41
2022-10-15T00:44:01.959Z,12.42
2022-10-15T00:45:01.943Z,12.46
2022-10-15T00:46:01.954Z,12.49
2022-10-15T00:47:01.926Z,12.38
2022-10-15T00:48:01.930Z,12.42
2022-10-15T00:50:01.913Z,12.42
2022-10-15T00:51:01.872Z,12.38
2022-10-15T00:52:01.886Z,12.42
2022-10-15T00:53:01.857Z,12.39
2022-10-15T00:54:01.838Z,12.41
2022-10-15T00:55:01.834Z,12.39
2022-10-15T00:56:01.819Z,12.46
2022-10-15T00:57:01.805Z,12.32
2022-10-15T00:58:01.875Z,12.28
2022-10-15T00:59:01.787Z,12.27
2022-10-15T01:00:01.788Z,12.28
2022-10-15T01:01:01.837Z,12.35
2022-10-15T01:02:01.774Z,12.27
2022-10-15T01:03:01.754Z,12.28
2022-10-15T01:04:01.725Z,12.32
2022-10-15T01:05:01.731Z,12.24
2022-10-15T01:06:01.727Z,12.27
2022-10-15T01:07:01.690Z,12.29
2022-10-15T01:08:01.685Z,12.27
2022-10-15T01:09:01.668Z,12.34
2022-10-15T01:10:01.657Z,12.34
2022-10-15T01:11:01.677Z,12.24
2022-10-15T01:12:01.639Z,12.29
2022-10-15T01:13:01.726Z,12.28
2022-10-15T01:14:01.631Z,12.32
2022-10-15T01:15:01.597Z,12.24
2022-10-15T01:16:01.636Z,12.32
2022-10-15T01:17:01.602Z,12.28
2022-10-15T01:18:01.583Z,12.32
2022-10-15T01:19:01.572Z,12.19
2022-10-15T01:20:01.544Z,12.20
2022-10-15T01:21:01.557Z,12.13
2022-10-15T01:22:01.518Z,12.17
2022-10-15T01:23:01.508Z,12.20
2022-10-15T01:24:01.518Z,12.20
2022-10-15T01:25:01.483Z,12.20
2022-10-15T01:26:01.473Z,12.19
2022-10-15T01:27:01.460Z,12.20
2022-10-15T01:28:01.472Z,12.14
2022-10-15T01:29:01.471Z,12.19
2022-10-15T01:30:01.427Z,12.21
2022-10-15T01:31:01.413Z,12.21
2022-10-15T01:32:01.406Z,12.19
2022-10-15T01:33:01.409Z,12.16
2022-10-15T01:34:01.441Z,12.21
2022-10-15T01:35:01.394Z,12.24
2022-10-15T01:36:04.074Z,12.19
2022-10-15T01:37:02.343Z,12.23
2022-10-15T01:38:01.341Z,12.28
2022-10-15T01:39:01.366Z,12.19
2022-10-15T01:40:01.333Z,12.23
2022-10-15T01:41:01.306Z,12.20
2022-10-15T01:42:01.288Z,12.20
2022-10-15T01:43:01.278Z,12.23
2022-10-15T01:44:01.265Z,12.20
2022-10-15T01:45:01.272Z,12.19
2022-10-15T01:46:01.244Z,12.19
2022-10-15T01:47:01.232Z,12.20
2022-10-15T01:48:01.220Z,12.21
2022-10-15T01:49:01.211Z,12.23
2022-10-15T01:50:01.213Z,12.19
2022-10-15T01:51:01.206Z,12.21
2022-10-15T01:52:01.172Z,12.29
2022-10-15T01:53:01.159Z,12.20
2022-10-15T01:54:01.148Z,12.23
2022-10-15T01:55:01.141Z,12.27
2022-10-15T01:56:01.141Z,12.20
2022-10-15T01:57:01.115Z,12.27
2022-10-15T01:58:01.109Z,12.29
2022-10-15T01:59:01.112Z,12.31
2022-10-15T02:00:01.083Z,12.27
2022-10-15T02:01:01.130Z,12.23
2022-10-15T02:02:01.074Z,12.31
2022-10-15T02:03:01.055Z,12.29
2022-10-15T02:04:01.036Z,12.23
2022-10-15T02:05:01.023Z,12.29
2022-10-15T02:06:01.047Z,12.31
2022-10-15T02:07:01.019Z,12.28
2022-10-15T02:08:00.989Z,12.28
2022-10-15T02:09:00.980Z,12.35
2022-10-15T02:10:00.961Z,12.24
2022-10-15T02:11:00.949Z,12.32
2022-10-15T02:12:00.960Z,12.32
2022-10-15T02:13:00.937Z,12.37
2022-10-15T02:14:00.919Z,12.29
2022-10-15T02:15:00.907Z,12.38
2022-10-15T02:16:00.913Z,12.31
2022-10-15T02:17:00.878Z,12.27
2022-10-15T02:18:00.887Z,12.39
2022-10-15T02:19:00.882Z,12.39
2022-10-15T02:20:00.866Z,12.41
2022-10-15T02:21:00.837Z,12.41
2022-10-15T02:22:00.865Z,12.42
2022-10-15T02:23:00.833Z,12.41
2022-10-15T02:24:00.802Z,12.38
2022-10-15T02:25:00.795Z,12.38
2022-10-15T02:26:01.203Z,12.32
2022-10-15T02:27:00.766Z,12.31
2022-10-15T02:28:00.755Z,12.41
2022-10-15T02:29:00.922Z,12.38
2022-10-15T02:30:00.746Z,12.42
2022-10-15T02:31:00.740Z,12.38
2022-10-15T02:32:00.715Z,12.41
2022-10-15T02:33:00.700Z,12.35
2022-10-15T02:34:00.711Z,12.41
2022-10-15T02:35:00.671Z,12.46
2022-10-15T02:36:00.729Z,12.42
2022-10-15T02:37:00.649Z,12.46
2022-10-15T02:38:00.773Z,12.41
2022-10-15T02:39:00.658Z,12.39
2022-10-15T02:40:00.631Z,12.45
2022-10-15T02:41:00.608Z,12.41
2022-10-15T02:42:00.591Z,12.42
2022-10-15T02:43:00.579Z,12.46
2022-10-15T02:44:00.581Z,12.49
2022-10-15T02:45:00.583Z,12.50
2022-10-15T02:46:00.574Z,12.38
2022-10-15T02:47:00.531Z,12.39
2022-10-15T02:48:00.525Z,12.45
2022-10-15T02:49:00.551Z,12.47
2022-10-15T02:50:00.529Z,12.42
2022-10-15T02:51:00.488Z,12.41
2022-10-15T02:52:00.480Z,12.52
2022-10-15T02:53:00.467Z,12.52
2022-10-15T02:54:00.478Z,12.54
2022-10-15T02:55:00.460Z,12.54
2022-10-15T02:56:00.453Z,12.45
2022-10-15T02:57:00.456Z,12.42
2022-10-15T02:58:00.409Z,12.50
2022-10-15T02:59:00.406Z,12.46
2022-10-15T03:00:00.402Z,12.47
2022-10-15T03:01:00.471Z,12.56
2022-10-15T03:02:00.359Z,12.45
2022-10-15T03:03:00.377Z,12.54
2022-10-15T03:04:00.347Z,12.46
2022-10-15T03:05:00.333Z,12.49
2022-10-15T03:06:00.316Z,12.39
2022-10-15T03:07:00.305Z,12.46
2022-10-15T03:08:00.313Z,12.49
2022-10-15T03:09:00.282Z,12.42
2022-10-15T03:10:00.297Z,12.41
2022-10-15T03:11:00.303Z,12.42
2022-10-15T03:12:00.249Z,12.45
2022-10-15T03:13:00.233Z,12.39
2022-10-15T03:14:00.228Z,12.39
2022-10-15T03:15:00.215Z,12.45
2022-10-15T03:16:00.259Z,12.45
2022-10-15T03:17:00.193Z,12.50
2022-10-15T03:18:00.174Z,12.42
2022-10-15T03:19:00.164Z,12.39
2022-10-15T03:20:00.175Z,12.41
2022-10-15T03:21:00.173Z,12.46
2022-10-15T03:22:00.137Z,12.41
2022-10-15T03:23:00.127Z,12.39
2022-10-15T03:24:00.113Z,12.49
2022-10-15T03:25:00.105Z,12.45
2022-10-15T03:26:00.196Z,12.42
2022-10-15T03:27:00.097Z,12.41
2022-10-15T03:28:00.068Z,12.41
2022-10-15T03:29:00.050Z,12.42
2022-10-15T03:30:00.042Z,12.31
2022-10-15T03:31:00.065Z,12.42
2022-10-15T03:32:00.035Z,12.32
2022-10-15T03:33:00.009Z,12.38
2022-10-15T03:33:59.994Z,12.42
2022-10-15T03:34:59.976Z,12.29
2022-10-15T03:36:00.004Z,12.42
2022-10-15T03:36:59.982Z,12.28
2022-10-15T03:37:59.947Z,12.39
2022-10-15T03:38:59.933Z,12.42
2022-10-15T03:39:59.923Z,12.34
2022-10-15T03:41:07.108Z,12.28
2022-10-15T03:41:59.928Z,12.45
2022-10-15T03:42:59.890Z,12.41
2022-10-15T03:43:59.904Z,12.32
2022-10-15T03:44:59.936Z,12.31
2022-10-15T03:45:59.958Z,12.41
2022-10-15T03:46:59.879Z,12.39
2022-10-15T03:47:59.833Z,12.39
2022-10-15T03:48:59.834Z,12.39
2022-10-15T03:49:59.828Z,12.35
2022-10-15T03:50:59.801Z,12.41
2022-10-15T03:51:59.799Z,12.35
2022-10-15T03:52:59.774Z,12.39
2022-10-15T03:53:59.762Z,12.46
2022-10-15T03:54:59.776Z,12.42
2022-10-15T03:55:59.741Z,12.41
2022-10-15T03:56:59.746Z,12.41
2022-10-15T03:57:59.719Z,12.50
2022-10-15T03:58:59.710Z,12.41
2022-10-15T03:59:59.719Z,12.41
2022-10-15T04:00:59.736Z,12.47
2022-10-15T04:01:59.669Z,12.42
2022-10-15T04:02:59.695Z,12.45
2022-10-15T04:03:59.650Z,12.39
2022-10-15T04:04:59.633Z,12.42
2022-10-15T04:06:01.395Z,12.39
2022-10-15T04:06:59.727Z,12.47
2022-10-15T04:07:59.626Z,12.49
2022-10-15T04:08:59.604Z,12.39
2022-10-15T04:09:59.581Z,12.41
2022-10-15T04:11:01.459Z,12.53
2022-10-15T04:11:59.593Z,12.49
2022-10-15T04:12:59.649Z,12.42
2022-10-15T04:13:59.534Z,12.46
2022-10-15T04:14:59.535Z,12.42
2022-10-15T04:15:59.509Z,12.45
2022-10-15T04:16:59.498Z,12.34
2022-10-15T04:17:59.512Z,12.49
2022-10-15T04:18:59.475Z,12.45
2022-10-15T04:19:59.481Z,12.41
2022-10-15T04:20:59.465Z,12.42
2022-10-15T04:21:59.441Z,12.45
2022-10-15T04:22:59.438Z,12.46
2022-10-15T04:23:59.438Z,12.41
2022-10-15T04:24:59.409Z,12.37
2022-10-15T04:25:59.393Z,12.38
2022-10-15T04:26:59.423Z,12.38
2022-10-15T04:27:59.367Z,12.42
2022-10-15T04:28:59.469Z,12.47
2022-10-15T04:29:59.351Z,12.42
2022-10-15T04:30:59.345Z,12.39
2022-10-15T04:31:59.333Z,12.45
2022-10-15T04:32:59.329Z,12.52
2022-10-15T04:33:59.317Z,12.42
2022-10-15T04:34:59.294Z,12.42
2022-10-15T04:35:59.279Z,12.46
2022-10-15T04:36:59.268Z,12.41
2022-10-15T04:37:59.276Z,12.41
2022-10-15T04:38:59.259Z,12.47
2022-10-15T04:39:59.233Z,12.39
2022-10-15T04:40:59.220Z,12.37
2022-10-15T04:41:59.234Z,12.42
2022-10-15T04:42:59.200Z,12.47
2022-10-15T04:43:59.186Z,12.42
2022-10-15T04:44:59.194Z,12.46
2022-10-15T04:45:59.164Z,12.45
2022-10-15T04:46:59.155Z,12.45
2022-10-15T04:47:59.159Z,12.46
2022-10-15T04:48:59.152Z,12.41
2022-10-15T04:49:59.115Z,12.45
2022-10-15T04:50:59.119Z,12.39
2022-10-15T04:51:59.117Z,12.50
2022-10-15T04:52:59.080Z,12.45
2022-10-15T04:53:59.070Z,12.42
2022-10-15T04:54:59.064Z,12.45
2022-10-15T04:55:59.068Z,12.46
2022-10-15T04:56:59.057Z,12.42
2022-10-15T04:57:59.029Z,12.38
2022-10-15T04:58:59.015Z,12.39
2022-10-15T04:59:59.032Z,12.41
2022-10-15T05:00:59.015Z,12.46
2022-10-15T05:01:58.996Z,12.41
2022-10-15T05:02:58.977Z,12.38
2022-10-15T05:03:58.953Z,12.32
2022-10-15T05:04:58.943Z,12.42
2022-10-15T05:05:58.955Z,12.49
2022-10-15T05:06:58.919Z,12.41
2022-10-15T05:07:58.935Z,12.41
2022-10-15T05:08:58.935Z,12.42
2022-10-15T05:09:58.891Z,12.42
2022-10-15T05:10:58.874Z,12.38
2022-10-15T05:11:58.887Z,12.29
2022-10-15T05:12:58.851Z,12.39
2022-10-15T05:13:58.842Z,12.28
2022-10-15T05:14:58.881Z,12.31
2022-10-15T05:15:58.817Z,12.29
2022-10-15T05:16:58.883Z,12.29
2022-10-15T05:17:58.796Z,12.28
2022-10-15T05:18:58.808Z,12.29
2022-10-15T05:19:58.771Z,12.28
2022-10-15T05:20:58.772Z,12.27
2022-10-15T05:21:58.747Z,12.29
2022-10-15T05:22:58.758Z,12.27
2022-10-15T05:23:58.727Z,12.27
2022-10-15T05:24:58.714Z,12.27
2022-10-15T05:25:58.701Z,12.34
2022-10-15T05:26:58.759Z,12.19
2022-10-15T05:27:58.682Z,12.29
2022-10-15T05:28:58.773Z,12.24
2022-10-15T05:29:58.656Z,12.20
2022-10-15T05:30:58.711Z,12.23
2022-10-15T05:31:58.633Z,12.29
2022-10-15T05:32:58.704Z,12.24
2022-10-15T05:33:58.610Z,12.28
2022-10-15T05:34:58.618Z,12.28
2022-10-15T05:35:58.589Z,12.28
2022-10-15T05:36:58.609Z,12.27
2022-10-15T05:37:58.563Z,12.27
2022-10-15T05:38:58.587Z,12.29
2022-10-15T05:39:58.541Z,12.39
2022-10-15T05:40:58.535Z,12.39
2022-10-15T05:41:58.523Z,12.42
2022-10-15T05:42:58.509Z,12.45
2022-10-15T05:43:58.511Z,12.52
2022-10-15T05:44:58.492Z,12.49
2022-10-15T05:45:58.473Z,12.46
2022-10-15T05:46:58.461Z,12.39
2022-10-15T05:47:58.734Z,12.42
2022-10-15T05:48:58.475Z,12.49
2022-10-15T05:49:58.425Z,12.41
2022-10-15T05:50:58.424Z,12.52
2022-10-15T05:52:01.142Z,12.52
2022-10-15T05:52:58.396Z,12.54
2022-10-15T05:53:58.399Z,12.49
2022-10-15T05:54:58.367Z,12.49
2022-10-15T05:55:58.375Z,12.39
2022-10-15T05:56:58.362Z,12.45
2022-10-15T05:57:58.333Z,12.47
2022-10-15T05:58:58.326Z,12.41
2022-10-15T05:59:58.311Z,12.42
2022-10-15T06:00:58.320Z,12.39
2022-10-15T06:01:58.351Z,12.41
2022-10-15T06:02:58.327Z,12.45
2022-10-15T06:03:58.266Z,12.34
2022-10-15T06:04:58.272Z,12.38
2022-10-15T06:05:58.247Z,12.46
2022-10-15T06:06:58.236Z,12.41
2022-10-15T06:07:58.239Z,12.39
2022-10-15T06:08:58.387Z,12.38
2022-10-15T06:09:58.202Z,12.42
2022-10-15T06:10:58.189Z,12.50
2022-10-15T06:11:58.175Z,12.41
2022-10-15T06:12:58.168Z,12.45
2022-10-15T06:13:58.180Z,12.45
2022-10-15T06:14:58.152Z,12.54
2022-10-15T06:15:58.126Z,12.46
2022-10-15T06:16:58.140Z,12.49
2022-10-15T06:17:58.102Z,12.54
2022-10-15T06:18:58.113Z,12.53
2022-10-15T06:19:58.079Z,12.54
2022-10-15T06:20:58.092Z,12.50
2022-10-15T06:21:58.067Z,12.49
2022-10-15T06:22:58.048Z,12.56
2022-10-15T06:23:58.055Z,12.50
2022-10-15T06:24:58.027Z,12.54
2022-10-15T06:25:58.031Z,12.62
2022-10-15T06:26:58.021Z,12.64
2022-10-15T06:27:57.990Z,12.53
2022-10-15T06:28:58.060Z,12.53
2022-10-15T06:29:57.969Z,12.64
2022-10-15T06:30:57.976Z,12.65
2022-10-15T06:31:57.944Z,12.68
2022-10-15T06:32:58.015Z,12.65
2022-10-15T06:33:57.940Z,12.70
2022-10-15T06:34:57.905Z,12.74
2022-10-15T06:35:57.901Z,12.77
2022-10-15T06:36:57.902Z,12.72
2022-10-15T06:38:00.678Z,12.75
2022-10-15T06:38:58.903Z,12.78
2022-10-15T06:39:57.851Z,12.83
2022-10-15T06:40:57.870Z,12.68
2022-10-15T06:41:57.830Z,12.78
2022-10-15T06:42:57.818Z,12.68
2022-10-15T06:43:57.829Z,12.75
2022-10-15T06:44:57.811Z,12.79
2022-10-15T06:45:57.800Z,12.79
2022-10-15T06:46:57.789Z,12.79
2022-10-15T06:47:57.762Z,12.89
2022-10-15T06:48:57.753Z,12.92
2022-10-15T06:49:57.740Z,12.95
2022-10-15T06:50:57.761Z,12.87
2022-10-15T06:52:02.572Z,12.92
2022-10-15T06:53:57.701Z,12.86
2022-10-15T06:54:57.680Z,13.01
2022-10-15T06:55:57.669Z,12.96
2022-10-15T06:56:57.670Z,13.00
2022-10-15T06:57:57.638Z,13.07
2022-10-15T06:58:57.653Z,12.97
2022-10-15T06:59:57.638Z,12.95
2022-10-15T07:00:57.614Z,12.96
2022-10-15T07:01:57.617Z,13.07
2022-10-15T07:02:57.616Z,13.08
2022-10-15T07:03:57.574Z,13.00
2022-10-15T07:04:57.564Z,12.96
2022-10-15T07:05:57.577Z,13.00
2022-10-15T07:06:57.571Z,13.08
2022-10-15T07:07:57.554Z,13.12
2022-10-15T07:08:57.553Z,13.11
2022-10-15T07:09:57.504Z,13.10
2022-10-15T07:10:57.491Z,13.10
2022-10-15T07:11:57.485Z,13.08
2022-10-15T07:12:57.492Z,13.12
2022-10-15T07:13:57.456Z,13.17
2022-10-15T07:14:57.463Z,13.25
2022-10-15T07:15:57.436Z,13.25
2022-10-15T07:16:57.443Z,13.23
2022-10-15T07:17:57.414Z,13.20
2022-10-15T07:18:57.401Z,13.32
2022-10-15T07:19:57.386Z,13.42
2022-10-15T07:20:57.431Z,13.57
2022-10-15T07:21:57.365Z,13.52
2022-10-15T07:22:57.392Z,13.71
2022-10-15T07:23:57.344Z,13.70
2022-10-15T07:24:57.352Z,13.75
2022-10-15T07:25:57.321Z,13.87
2022-10-15T07:26:57.346Z,13.84
2022-10-15T07:27:57.321Z,13.85
2022-10-15T07:28:59.345Z,13.99
2022-10-15T07:29:57.274Z,13.99
2022-10-15T07:30:57.286Z,13.99
2022-10-15T07:31:57.250Z,14.00
2022-10-15T07:32:57.249Z,14.10
2022-10-15T07:33:57.229Z,14.02
2022-10-15T07:34:57.224Z,14.09
2022-10-15T07:35:57.241Z,14.06
2022-10-15T07:36:57.197Z,14.10
2022-10-15T07:37:57.187Z,14.00
2022-10-15T07:38:57.185Z,14.03
2022-10-15T07:39:57.161Z,14.04
2022-10-15T07:40:57.208Z,14.06
2022-10-15T07:41:57.139Z,14.02
2022-10-15T07:42:57.131Z,13.97
2022-10-15T07:43:57.159Z,13.99
2022-10-15T07:44:57.124Z,14.06
2022-10-15T07:45:57.131Z,14.00
2022-10-15T07:46:57.101Z,13.97
2022-10-15T07:47:57.074Z,14.00
2022-10-15T07:48:57.068Z,13.95
2022-10-15T07:49:57.058Z,13.95
2022-10-15T07:50:57.082Z,13.95
2022-10-15T07:51:57.074Z,13.97
2022-10-15T07:52:57.027Z,14.04
2022-10-15T07:53:57.020Z,13.96
2022-10-15T07:54:56.994Z,13.95
2022-10-15T07:55:56.986Z,13.96
2022-10-15T07:56:57.015Z,13.95
2022-10-15T07:57:56.961Z,13.99
2022-10-15T07:58:57.024Z,14.07
2022-10-15T07:59:56.966Z,13.97
2022-10-15T08:00:56.931Z,14.06
2022-10-15T08:01:56.946Z,13.96
2022-10-15T08:02:56.904Z,14.07
2022-10-15T08:03:56.903Z,14.10
2022-10-15T08:04:56.895Z,14.12
2022-10-15T08:05:56.891Z,14.10
2022-10-15T08:06:56.887Z,14.21
2022-10-15T08:07:56.849Z,14.25
2022-10-15T08:08:56.838Z,14.22
2022-10-15T08:09:56.828Z,14.25
2022-10-15T08:10:56.826Z,14.29
2022-10-15T08:11:56.859Z,14.28
2022-10-15T08:12:56.814Z,14.32
2022-10-15T08:13:56.787Z,14.35
2022-10-15T08:14:56.771Z,14.43
2022-10-15T08:15:59.368Z,14.43
2022-10-15T08:16:56.773Z,14.45
2022-10-15T08:17:56.737Z,14.39
2022-10-15T08:18:56.726Z,14.51
2022-10-15T08:19:56.723Z,14.54
2022-10-15T08:20:56.706Z,14.55
2022-10-15T08:21:56.739Z,14.61
2022-10-15T08:22:56.690Z,14.64
2022-10-15T08:23:56.691Z,14.68
2022-10-15T08:24:56.671Z,14.68
2022-10-15T08:25:56.648Z,14.65
2022-10-15T08:26:56.698Z,14.68
2022-10-15T08:27:56.680Z,14.75
2022-10-15T08:28:56.739Z,14.77
2022-10-15T08:29:56.628Z,14.81
2022-10-15T08:30:57.718Z,14.86
2022-10-15T08:31:56.619Z,14.95
2022-10-15T08:32:56.595Z,14.98
2022-10-15T08:33:56.567Z,15.01
2022-10-15T08:34:56.566Z,15.09
2022-10-15T08:35:56.553Z,15.07
2022-10-15T08:36:56.557Z,15.23
2022-10-15T08:37:56.552Z,15.27
2022-10-15T08:38:56.516Z,15.31
2022-10-15T08:39:56.513Z,15.35
2022-10-15T08:40:56.489Z,15.36
2022-10-15T08:41:56.476Z,15.44
2022-10-15T08:42:56.488Z,15.46
2022-10-15T08:43:56.460Z,15.49
2022-10-15T08:44:56.506Z,15.49
2022-10-15T08:45:56.433Z,15.44
2022-10-15T08:46:56.423Z,15.44
2022-10-15T08:47:56.506Z,15.44
2022-10-15T08:48:56.406Z,15.44
2022-10-15T08:49:56.586Z,15.36
2022-10-15T08:50:56.432Z,15.39
2022-10-15T08:51:56.477Z,15.41
2022-10-15T08:52:56.451Z,15.38
2022-10-15T08:53:56.469Z,15.46
2022-10-15T08:54:56.334Z,15.44
2022-10-15T08:55:56.318Z,15.36
2022-10-15T08:56:56.297Z,15.34
2022-10-15T08:57:56.310Z,15.39
2022-10-15T08:58:56.273Z,15.39
2022-10-15T08:59:56.267Z,15.44
2022-10-15T09:00:56.264Z,15.47
2022-10-15T09:01:56.259Z,15.43
2022-10-15T09:02:56.313Z,15.44
2022-10-15T09:03:56.221Z,15.60
2022-10-15T09:04:56.206Z,15.57
2022-10-15T09:05:57.759Z,15.51
2022-10-15T09:06:56.173Z,15.54
2022-10-15T09:07:56.163Z,15.62
2022-10-15T09:08:56.202Z,15.67
2022-10-15T09:09:56.141Z,15.75
2022-10-15T09:10:56.132Z,15.76
2022-10-15T09:11:56.123Z,15.67
2022-10-15T09:12:56.107Z,15.80
2022-10-15T09:13:56.115Z,15.78
2022-10-15T09:14:57.056Z,15.78
2022-10-15T09:15:56.069Z,15.82
2022-10-15T09:16:56.077Z,15.86
2022-10-15T09:17:56.042Z,15.89
2022-10-15T09:18:56.063Z,15.87
2022-10-15T09:19:56.029Z,15.97
2022-10-15T09:20:56.028Z,15.96
2022-10-15T09:21:56.004Z,15.90
2022-10-15T09:22:55.995Z,16.04
2022-10-15T09:23:56.023Z,15.97
2022-10-15T09:24:55.963Z,16.00
2022-10-15T09:25:55.951Z,16.04
2022-10-15T09:26:55.939Z,15.97
2022-10-15T09:27:55.941Z,15.90
2022-10-15T09:28:56.022Z,15.83
2022-10-15T09:29:55.934Z,15.80
2022-10-15T09:30:55.891Z,15.82
2022-10-15T09:31:58.927Z,15.80
2022-10-15T09:32:55.883Z,15.78
2022-10-15T09:33:55.859Z,15.75
2022-10-15T09:34:55.862Z,15.76
2022-10-15T09:35:55.835Z,15.82
2022-10-15T09:36:55.819Z,15.83
2022-10-15T09:37:55.807Z,15.83
2022-10-15T09:38:55.832Z,15.76
2022-10-15T09:39:55.801Z,15.90
2022-10-15T09:40:55.840Z,15.87
2022-10-15T09:41:55.762Z,16.01
2022-10-15T09:42:55.751Z,16.05
2022-10-15T09:43:55.734Z,16.09
2022-10-15T09:44:55.743Z,16.20
2022-10-15T09:45:55.713Z,16.25
2022-10-15T09:46:55.706Z,16.27
2022-10-15T09:47:55.691Z,16.27
2022-10-15T09:48:55.718Z,16.23
2022-10-15T09:49:55.668Z,16.14
2022-10-15T09:50:55.656Z,16.30
2022-10-15T09:51:55.644Z,16.17
2022-10-15T09:52:55.651Z,16.25
2022-10-15T09:53:55.670Z,16.27
2022-10-15T09:54:55.633Z,16.20
2022-10-15T09:55:55.598Z,16.14
2022-10-15T09:56:55.586Z,16.20
2022-10-15T09:57:55.618Z,16.27
2022-10-15T09:58:55.565Z,16.25
2022-10-15T09:59:55.578Z,16.05
2022-10-15T10:00:55.539Z,16.12
2022-10-15T10:01:55.592Z,16.09
2022-10-15T10:02:55.522Z,16.07
2022-10-15T10:03:55.525Z,16.12
2022-10-15T10:04:55.510Z,15.94
2022-10-15T10:05:55.507Z,16.01
2022-10-15T10:06:55.474Z,15.97
2022-10-15T10:07:55.463Z,15.92
2022-10-15T10:08:55.452Z,15.92
2022-10-15T10:09:55.474Z,15.76
2022-10-15T10:10:55.429Z,15.82
2022-10-15T10:11:55.415Z,15.82
2022-10-15T10:12:55.406Z,15.83
2022-10-15T10:13:55.388Z,15.76
2022-10-15T10:14:55.386Z,15.82
2022-10-15T10:15:58.371Z,15.71
2022-10-15T10:16:55.361Z,15.74
2022-10-15T10:17:55.354Z,15.78
2022-10-15T10:18:55.337Z,15.75
2022-10-15T10:19:55.364Z,15.78
2022-10-15T10:20:55.346Z,15.78
2022-10-15T10:21:55.306Z,15.69
2022-10-15T10:22:55.290Z,15.82
2022-10-15T10:23:55.281Z,15.87
2022-10-15T10:24:55.308Z,15.89
2022-10-15T10:25:55.265Z,15.93
2022-10-15T10:26:55.273Z,15.90
2022-10-15T10:27:55.228Z,15.97
2022-10-15T10:28:57.028Z,15.94
2022-10-15T10:29:56.245Z,15.90
2022-10-15T10:30:55.239Z,15.94
2022-10-15T10:31:55.180Z,16.02
2022-10-15T10:32:55.179Z,16.00
2022-10-15T10:33:55.161Z,15.96
2022-10-15T10:34:55.177Z,15.97
2022-10-15T10:35:55.254Z,15.96
2022-10-15T10:36:55.160Z,15.92
2022-10-15T10:37:55.122Z,16.04
2022-10-15T10:38:55.164Z,16.05
2022-10-15T10:39:55.099Z,16.12
2022-10-15T10:40:55.085Z,16.11
2022-10-15T10:41:55.089Z,16.23
2022-10-15T10:42:59.706Z,16.23
2022-10-15T10:43:55.046Z,16.12
2022-10-15T10:44:55.032Z,16.17
2022-10-15T10:45:55.064Z,16.34
2022-10-15T10:46:55.009Z,16.34
2022-10-15T10:47:55.001Z,16.41
2022-10-15T10:48:55.005Z,16.39
2022-10-15T10:49:54.978Z,16.30
2022-10-15T10:50:54.983Z,16.33
2022-10-15T10:51:54.975Z,16.35
2022-10-15T10:52:55.019Z,16.20
2022-10-15T10:53:54.934Z,16.17
2022-10-15T10:54:54.918Z,16.17
2022-10-15T10:55:54.909Z,16.24
2022-10-15T10:56:54.915Z,16.31
2022-10-15T10:57:54.889Z,16.38
2022-10-15T10:58:54.883Z,16.46
2022-10-15T10:59:54.873Z,16.39
2022-10-15T11:00:54.862Z,16.42
2022-10-15T11:01:54.858Z,16.46
2022-10-15T11:02:54.826Z,16.42
2022-10-15T11:03:54.870Z,16.45
2022-10-15T11:04:54.805Z,16.50
2022-10-15T11:05:54.794Z,16.41
2022-10-15T11:06:54.825Z,16.43
2022-10-15T11:07:54.791Z,16.43
2022-10-15T11:08:54.781Z,16.43
2022-10-15T11:09:56.249Z,16.45
2022-10-15T11:10:54.760Z,16.39
2022-10-15T11:11:54.744Z,16.41
2022-10-15T11:12:54.715Z,16.33
2022-10-15T11:13:54.711Z,16.31
2022-10-15T11:14:54.695Z,16.35
2022-10-15T11:15:54.678Z,16.38
2022-10-15T11:16:54.672Z,16.28
2022-10-15T11:17:54.674Z,16.31
2022-10-15T11:18:54.643Z,16.34
2022-10-15T11:20:20.438Z,16.28
2022-10-15T11:20:59.731Z,16.31
2022-10-15T11:21:55.636Z,16.31
2022-10-15T11:22:54.598Z,16.28
2022-10-15T11:23:54.587Z,16.33
2022-10-15T11:25:06.108Z,16.28
2022-10-15T11:25:55.562Z,16.28
2022-10-15T11:27:10.107Z,16.39
2022-10-15T11:27:55.540Z,16.41
2022-10-15T11:28:54.634Z,16.35
2022-10-15T11:29:54.518Z,16.42
2022-10-15T11:30:54.504Z,16.43
2022-10-15T11:32:02.789Z,16.34
2022-10-15T11:33:06.895Z,16.31
2022-10-15T11:33:55.563Z,16.27
2022-10-15T11:34:54.460Z,16.20
2022-10-15T11:35:54.814Z,16.25
2022-10-15T11:36:54.439Z,16.25
2022-10-15T11:37:54.427Z,16.24
2022-10-15T11:38:54.413Z,16.14
2022-10-15T11:39:54.405Z,16.25
2022-10-15T11:40:54.431Z,16.21
2022-10-15T11:41:54.381Z,16.17
2022-10-15T11:42:54.368Z,16.11
2022-10-15T11:43:54.398Z,16.08
2022-10-15T11:44:54.344Z,16.04
2022-10-15T11:45:54.360Z,16.04
2022-10-15T11:46:54.320Z,16.01
2022-10-15T11:47:54.315Z,16.02
2022-10-15T11:48:54.300Z,16.00
2022-10-15T11:49:54.295Z,15.97
2022-10-15T11:50:54.313Z,16.11
2022-10-15T11:51:54.282Z,16.15
2022-10-15T11:52:54.272Z,16.08
2022-10-15T11:53:54.244Z,16.11
2022-10-15T11:54:54.233Z,16.17
2022-10-15T11:55:54.221Z,16.23
2022-10-15T11:56:54.239Z,16.24
2022-10-15T11:57:54.210Z,16.27
2022-10-15T11:58:54.233Z,16.30
2022-10-15T11:59:54.374Z,16.43
2022-10-15T12:00:54.167Z,16.45
2022-10-15T12:01:54.157Z,16.46
2022-10-15T12:02:54.211Z,16.49
2022-10-15T12:03:54.164Z,16.48
2022-10-15T12:04:54.116Z,16.43
2022-10-15T12:05:54.139Z,16.42
2022-10-15T12:06:54.092Z,16.42
2022-10-15T12:07:54.124Z,16.39
2022-10-15T12:08:54.068Z,16.48
2022-10-15T12:09:54.077Z,16.38
2022-10-15T12:10:54.055Z,16.38
2022-10-15T12:11:54.035Z,16.43
2022-10-15T12:12:54.139Z,16.49
2022-10-15T12:13:54.016Z,16.43
2022-10-15T12:14:54.019Z,16.48
2022-10-15T12:15:54.028Z,16.45
2022-10-15T12:16:53.989Z,16.49
2022-10-15T12:17:53.966Z,16.42
2022-10-15T12:18:53.995Z,16.56
2022-10-15T12:19:56.623Z,16.53
2022-10-15T12:20:53.945Z,16.52
2022-10-15T12:21:53.931Z,16.52
2022-10-15T12:22:53.943Z,16.52
2022-10-15T12:23:53.919Z,16.57
2022-10-15T12:24:53.890Z,16.58
2022-10-15T12:25:53.876Z,16.56
2022-10-15T12:26:53.885Z,16.57
2022-10-15T12:27:53.864Z,16.56
2022-10-15T12:28:53.980Z,16.50
2022-10-15T12:29:53.830Z,16.43
2022-10-15T12:30:53.821Z,16.48
2022-10-15T12:31:53.811Z,16.49
2022-10-15T12:32:53.814Z,16.53
2022-10-15T12:33:53.799Z,16.49
2022-10-15T12:34:53.775Z,16.53
2022-10-15T12:35:53.763Z,16.56
2022-10-15T12:36:53.753Z,16.50
2022-10-15T12:37:53.757Z,16.45
2022-10-15T12:38:53.732Z,16.50
2022-10-15T12:39:53.849Z,16.46
2022-10-15T12:40:53.705Z,16.50
2022-10-15T12:41:53.696Z,16.58
2022-10-15T12:42:53.687Z,16.66
2022-10-15T12:43:53.674Z,16.61
2022-10-15T12:44:53.696Z,16.71
2022-10-15T12:45:53.659Z,16.70
2022-10-15T12:46:53.637Z,16.78
2022-10-15T12:47:53.633Z,16.79
2022-10-15T12:48:53.634Z,16.88
2022-10-15T12:49:53.625Z,16.97
2022-10-15T12:50:53.595Z,16.98
2022-10-15T12:51:56.156Z,16.96
2022-10-15T12:52:53.571Z,16.94
2022-10-15T12:53:53.575Z,16.98
2022-10-15T12:54:53.546Z,17.04
2022-10-15T12:55:53.553Z,16.96
2022-10-15T12:56:53.546Z,17.01
2022-10-15T12:57:53.538Z,16.98